sensor_id;sensor_type;location;lat;lon;timestamp;temperature;humidity
19180;DHT22;9722;48.754;8.868;2023-09-19T00:00:47;17.10;99.90
19180;DHT22;9722;48.754;8.868;2023-09-19T00:04:09;17.10;99.90
19180;DHT22;9722;48.754;8.868;2023-09-19T00:07:30;17.10;99.90
19180;DHT22;9722;48.754;8.868;2023-09-19T00:10:50;17.00;99.90
19180;DHT22;9722;48.754;8.868;2023-09-19T00:14:11;17.00;99.90
19180;DHT22;9722;48.754;8.868;2023-09-19T00:17:34;16.90;99.90
19180;DHT22;9722;48.754;8.868;2023-09-19T00:21:00;17.00;99.90
19180;DHT22;9722;48.754;8.868;2023-09-19T00:24:21;17.00;99.90
19180;DHT22;9722;48.754;8.868;2023-09-19T00:27:43;16.90;99.90
19180;DHT22;9722;48.754;8.868;2023-09-19T00:31:08;17.00;99.90
19180;DHT22;9722;48.754;8.868;2023-09-19T00:34:29;16.90;99.90
19180;DHT22;9722;48.754;8.868;2023-09-19T00:37:51;17.00;99.90
19180;DHT22;9722;48.754;8.868;2023-09-19T00:41:12;16.90;99.90
19180;DHT22;9722;48.754;8.868;2023-09-19T00:44:33;16.90;99.90
19180;DHT22;9722;48.754;8.868;2023-09-19T00:47:54;16.90;99.90
19180;DHT22;9722;48.754;8.868;2023-09-19T00:51:15;16.90;99.90
19180;DHT22;9722;48.754;8.868;2023-09-19T00:54:39;16.90;99.90
19180;DHT22;9722;48.754;8.868;2023-09-19T00:58:01;16.80;99.90
19180;DHT22;9722;48.754;8.868;2023-09-19T01:01:21;16.80;99.90
19180;DHT22;9722;48.754;8.868;2023-09-19T01:04:43;16.80;99.90
19180;DHT22;9722;48.754;8.868;2023-09-19T01:08:04;16.70;99.90
19180;DHT22;9722;48.754;8.868;2023-09-19T01:11:35;16.70;99.90
19180;DHT22;9722;48.754;8.868;2023-09-19T01:15:06;16.60;99.90
19180;DHT22;9722;48.754;8.868;2023-09-19T01:25:35;16.60;99.90
19180;DHT22;9722;48.754;8.868;2023-09-19T01:29:17;16.60;99.90
19180;DHT22;9722;48.754;8.868;2023-09-19T01:32:50;16.60;99.90
19180;DHT22;9722;48.754;8.868;2023-09-19T01:36:12;16.60;99.90
19180;DHT22;9722;48.754;8.868;2023-09-19T01:39:33;16.60;99.90
19180;DHT22;9722;48.754;8.868;2023-09-19T01:43:16;16.60;99.90
19180;DHT22;9722;48.754;8.868;2023-09-19T01:46:40;16.50;99.90
19180;DHT22;9722;48.754;8.868;2023-09-19T01:50:17;16.50;99.90
19180;DHT22;9722;48.754;8.868;2023-09-19T01:53:43;16.40;99.90
19180;DHT22;9722;48.754;8.868;2023-09-19T01:57:17;16.30;99.90
19180;DHT22;9722;48.754;8.868;2023-09-19T02:00:42;16.20;99.90
19180;DHT22;9722;48.754;8.868;2023-09-19T02:04:03;16.10;99.90
19180;DHT22;9722;48.754;8.868;2023-09-19T02:07:24;16.10;99.90
19180;DHT22;9722;48.754;8.868;2023-09-19T02:10:45;16.00;99.90
19180;DHT22;9722;48.754;8.868;2023-09-19T02:14:09;16.00;99.90
19180;DHT22;9722;48.754;8.868;2023-09-19T02:17:29;16.00;99.90
19180;DHT22;9722;48.754;8.868;2023-09-19T02:20:53;16.00;99.90
19180;DHT22;9722;48.754;8.868;2023-09-19T02:24:15;16.00;99.90
19180;DHT22;9722;48.754;8.868;2023-09-19T02:27:36;16.00;99.90
19180;DHT22;9722;48.754;8.868;2023-09-19T02:30:57;15.90;99.90
19180;DHT22;9722;48.754;8.868;2023-09-19T02:34:17;15.80;99.90
19180;DHT22;9722;48.754;8.868;2023-09-19T02:37:38;15.80;99.90
19180;DHT22;9722;48.754;8.868;2023-09-19T02:40:58;15.70;99.90
19180;DHT22;9722;48.754;8.868;2023-09-19T02:44:19;15.70;99.90
19180;DHT22;9722;48.754;8.868;2023-09-19T02:47:40;15.70;99.90
19180;DHT22;9722;48.754;8.868;2023-09-19T02:51:01;15.70;99.90
19180;DHT22;9722;48.754;8.868;2023-09-19T02:54:22;15.70;99.90
19180;DHT22;9722;48.754;8.868;2023-09-19T02:57:48;15.80;99.90
19180;DHT22;9722;48.754;8.868;2023-09-19T03:01:10;15.90;99.90
19180;DHT22;9722;48.754;8.868;2023-09-19T03:04:32;15.90;99.90
19180;DHT22;9722;48.754;8.868;2023-09-19T03:07:54;15.90;99.90
19180;DHT22;9722;48.754;8.868;2023-09-19T03:11:16;16.00;99.90
19180;DHT22;9722;48.754;8.868;2023-09-19T03:14:39;16.00;99.90
19180;DHT22;9722;48.754;8.868;2023-09-19T03:17:59;16.10;99.90
19180;DHT22;9722;48.754;8.868;2023-09-19T03:21:20;16.10;99.90
19180;DHT22;9722;48.754;8.868;2023-09-19T03:24:42;16.20;99.90
19180;DHT22;9722;48.754;8.868;2023-09-19T03:28:04;16.20;99.90
19180;DHT22;9722;48.754;8.868;2023-09-19T03:31:28;16.30;99.90
19180;DHT22;9722;48.754;8.868;2023-09-19T03:34:48;16.30;99.90
19180;DHT22;9722;48.754;8.868;2023-09-19T03:38:09;16.30;99.90
19180;DHT22;9722;48.754;8.868;2023-09-19T03:41:29;16.40;99.90
19180;DHT22;9722;48.754;8.868;2023-09-19T03:44:50;16.40;99.90
19180;DHT22;9722;48.754;8.868;2023-09-19T03:48:12;16.40;99.90
19180;DHT22;9722;48.754;8.868;2023-09-19T03:51:33;16.40;99.90
19180;DHT22;9722;48.754;8.868;2023-09-19T03:54:54;16.50;99.90
19180;DHT22;9722;48.754;8.868;2023-09-19T03:58:15;16.50;99.90
19180;DHT22;9722;48.754;8.868;2023-09-19T04:01:35;16.60;99.90
19180;DHT22;9722;48.754;8.868;2023-09-19T04:04:56;16.70;99.90
19180;DHT22;9722;48.754;8.868;2023-09-19T04:08:16;16.70;99.90
19180;DHT22;9722;48.754;8.868;2023-09-19T04:11:37;16.80;99.90
19180;DHT22;9722;48.754;8.868;2023-09-19T04:14:58;16.80;99.90
19180;DHT22;9722;48.754;8.868;2023-09-19T04:18:18;16.90;99.90
19180;DHT22;9722;48.754;8.868;2023-09-19T04:21:40;16.90;99.90
19180;DHT22;9722;48.754;8.868;2023-09-19T04:25:01;16.90;99.90
19180;DHT22;9722;48.754;8.868;2023-09-19T04:28:22;17.00;99.90
19180;DHT22;9722;48.754;8.868;2023-09-19T04:31:43;17.00;99.90
19180;DHT22;9722;48.754;8.868;2023-09-19T04:35:07;17.00;99.90
19180;DHT22;9722;48.754;8.868;2023-09-19T04:38:28;17.10;99.90
19180;DHT22;9722;48.754;8.868;2023-09-19T04:41:49;17.10;99.90
19180;DHT22;9722;48.754;8.868;2023-09-19T04:45:10;17.10;99.90
19180;DHT22;9722;48.754;8.868;2023-09-19T04:48:31;17.10;99.90
19180;DHT22;9722;48.754;8.868;2023-09-19T04:51:52;17.10;99.90
19180;DHT22;9722;48.754;8.868;2023-09-19T04:55:14;17.10;99.90
19180;DHT22;9722;48.754;8.868;2023-09-19T04:58:37;17.10;99.90
19180;DHT22;9722;48.754;8.868;2023-09-19T05:01:58;17.10;99.90
19180;DHT22;9722;48.754;8.868;2023-09-19T05:05:19;17.10;99.90
19180;DHT22;9722;48.754;8.868;2023-09-19T05:08:39;17.10;99.90
19180;DHT22;9722;48.754;8.868;2023-09-19T05:12:00;17.00;99.90
19180;DHT22;9722;48.754;8.868;2023-09-19T05:15:21;17.00;99.90
19180;DHT22;9722;48.754;8.868;2023-09-19T05:18:41;17.00;99.90
19180;DHT22;9722;48.754;8.868;2023-09-19T05:22:02;17.00;99.90
19180;DHT22;9722;48.754;8.868;2023-09-19T05:25:24;17.00;99.90
19180;DHT22;9722;48.754;8.868;2023-09-19T05:28:45;17.00;99.90
19180;DHT22;9722;48.754;8.868;2023-09-19T05:32:05;17.00;99.90
19180;DHT22;9722;48.754;8.868;2023-09-19T05:35:26;17.00;99.90
19180;DHT22;9722;48.754;8.868;2023-09-19T05:38:46;17.00;99.90
19180;DHT22;9722;48.754;8.868;2023-09-19T05:42:10;17.00;99.90
19180;DHT22;9722;48.754;8.868;2023-09-19T05:45:31;16.90;99.90
19180;DHT22;9722;48.754;8.868;2023-09-19T05:48:52;16.90;99.90
19180;DHT22;9722;48.754;8.868;2023-09-19T05:52:12;16.80;99.90
19180;DHT22;9722;48.754;8.868;2023-09-19T05:55:33;16.80;99.90
19180;DHT22;9722;48.754;8.868;2023-09-19T05:58:54;16.80;99.90
19180;DHT22;9722;48.754;8.868;2023-09-19T06:02:14;16.70;99.90
19180;DHT22;9722;48.754;8.868;2023-09-19T06:05:35;16.70;99.90
19180;DHT22;9722;48.754;8.868;2023-09-19T06:08:56;16.70;99.90
19180;DHT22;9722;48.754;8.868;2023-09-19T06:12:18;16.80;99.90
19180;DHT22;9722;48.754;8.868;2023-09-19T06:15:38;16.80;99.90
19180;DHT22;9722;48.754;8.868;2023-09-19T06:19:00;16.80;99.90
19180;DHT22;9722;48.754;8.868;2023-09-19T06:22:21;16.90;99.90
19180;DHT22;9722;48.754;8.868;2023-09-19T06:25:41;16.90;99.90
19180;DHT22;9722;48.754;8.868;2023-09-19T06:29:03;17.00;99.90
19180;DHT22;9722;48.754;8.868;2023-09-19T06:32:27;17.10;99.90
19180;DHT22;9722;48.754;8.868;2023-09-19T06:35:49;17.30;99.90
19180;DHT22;9722;48.754;8.868;2023-09-19T06:39:10;17.70;99.90
19180;DHT22;9722;48.754;8.868;2023-09-19T06:42:31;18.00;99.90
19180;DHT22;9722;48.754;8.868;2023-09-19T06:45:51;18.40;99.90
19180;DHT22;9722;48.754;8.868;2023-09-19T06:49:15;18.70;99.90
19180;DHT22;9722;48.754;8.868;2023-09-19T06:52:35;19.10;99.70
19180;DHT22;9722;48.754;8.868;2023-09-19T06:55:56;19.20;99.00
19180;DHT22;9722;48.754;8.868;2023-09-19T06:59:18;19.30;98.00
19180;DHT22;9722;48.754;8.868;2023-09-19T07:02:38;19.30;97.60
19180;DHT22;9722;48.754;8.868;2023-09-19T07:05:59;19.30;97.70
19180;DHT22;9722;48.754;8.868;2023-09-19T07:09:20;19.50;97.20
19180;DHT22;9722;48.754;8.868;2023-09-19T07:12:42;19.50;96.80
19180;DHT22;9722;48.754;8.868;2023-09-19T07:16:03;19.60;96.70
19180;DHT22;9722;48.754;8.868;2023-09-19T07:19:24;19.70;96.60
19180;DHT22;9722;48.754;8.868;2023-09-19T07:22:45;20.00;96.00
19180;DHT22;9722;48.754;8.868;2023-09-19T07:26:05;20.30;95.80
19180;DHT22;9722;48.754;8.868;2023-09-19T07:29:26;20.80;95.40
19180;DHT22;9722;48.754;8.868;2023-09-19T07:32:47;21.20;94.50
19180;DHT22;9722;48.754;8.868;2023-09-19T07:36:10;21.50;94.00
19180;DHT22;9722;48.754;8.868;2023-09-19T07:39:31;21.90;93.20
19180;DHT22;9722;48.754;8.868;2023-09-19T07:42:51;22.00;91.70
19180;DHT22;9722;48.754;8.868;2023-09-19T07:46:12;22.20;91.90
19180;DHT22;9722;48.754;8.868;2023-09-19T07:49:33;22.90;91.40
19180;DHT22;9722;48.754;8.868;2023-09-19T07:52:54;24.10;89.60
19180;DHT22;9722;48.754;8.868;2023-09-19T07:56:16;24.80;81.20
19180;DHT22;9722;48.754;8.868;2023-09-19T07:59:38;24.70;78.30
19180;DHT22;9722;48.754;8.868;2023-09-19T08:02:59;24.20;77.40
19180;DHT22;9722;48.754;8.868;2023-09-19T08:06:19;24.00;77.10
19180;DHT22;9722;48.754;8.868;2023-09-19T08:09:40;23.90;78.70
19180;DHT22;9722;48.754;8.868;2023-09-19T08:13:01;24.30;77.10
19180;DHT22;9722;48.754;8.868;2023-09-19T08:16:22;25.00;75.60
19180;DHT22;9722;48.754;8.868;2023-09-19T08:19:45;25.70;71.60
19180;DHT22;9722;48.754;8.868;2023-09-19T08:23:06;26.40;68.70
19180;DHT22;9722;48.754;8.868;2023-09-19T08:26:28;27.10;63.20
19180;DHT22;9722;48.754;8.868;2023-09-19T08:29:49;27.30;60.30
19180;DHT22;9722;48.754;8.868;2023-09-19T08:33:11;27.20;59.40
19180;DHT22;9722;48.754;8.868;2023-09-19T08:36:32;27.40;59.00
19180;DHT22;9722;48.754;8.868;2023-09-19T08:39:52;27.90;58.10
19180;DHT22;9722;48.754;8.868;2023-09-19T08:43:13;28.30;57.20
19180;DHT22;9722;48.754;8.868;2023-09-19T08:46:34;28.70;55.70
19180;DHT22;9722;48.754;8.868;2023-09-19T08:50:11;29.10;54.70
19180;DHT22;9722;48.754;8.868;2023-09-19T08:53:42;29.90;53.20
19180;DHT22;9722;48.754;8.868;2023-09-19T08:57:09;30.50;50.70
19180;DHT22;9722;48.754;8.868;2023-09-19T09:00:32;30.30;49.50
19180;DHT22;9722;48.754;8.868;2023-09-19T09:03:54;30.10;49.20
19180;DHT22;9722;48.754;8.868;2023-09-19T09:07:15;29.70;50.40
19180;DHT22;9722;48.754;8.868;2023-09-19T09:10:37;30.00;50.60
19180;DHT22;9722;48.754;8.868;2023-09-19T09:13:58;30.70;49.00
19180;DHT22;9722;48.754;8.868;2023-09-19T09:17:19;31.40;47.50
19180;DHT22;9722;48.754;8.868;2023-09-19T09:20:40;32.20;45.60
19180;DHT22;9722;48.754;8.868;2023-09-19T09:24:29;32.50;44.00
19180;DHT22;9722;48.754;8.868;2023-09-19T09:28:00;32.70;42.50
19180;DHT22;9722;48.754;8.868;2023-09-19T09:31:25;32.50;43.10
19180;DHT22;9722;48.754;8.868;2023-09-19T09:34:51;32.50;42.10
19180;DHT22;9722;48.754;8.868;2023-09-19T09:38:12;32.50;42.40
19180;DHT22;9722;48.754;8.868;2023-09-19T09:41:37;33.00;42.30
19180;DHT22;9722;48.754;8.868;2023-09-19T09:48:36;33.70;40.40
19180;DHT22;9722;48.754;8.868;2023-09-19T09:52:04;33.30;41.20
19180;DHT22;9722;48.754;8.868;2023-09-19T09:55:29;32.50;41.80
19180;DHT22;9722;48.754;8.868;2023-09-19T09:58:51;31.40;42.60
19180;DHT22;9722;48.754;8.868;2023-09-19T10:02:16;30.70;43.00
19180;DHT22;9722;48.754;8.868;2023-09-19T10:05:44;30.80;42.00
19180;DHT22;9722;48.754;8.868;2023-09-19T10:09:10;29.70;42.80
19180;DHT22;9722;48.754;8.868;2023-09-19T10:12:31;28.40;45.00
19180;DHT22;9722;48.754;8.868;2023-09-19T10:15:55;27.70;45.90
19180;DHT22;9722;48.754;8.868;2023-09-19T10:19:21;28.50;45.60
19180;DHT22;9722;48.754;8.868;2023-09-19T10:22:46;28.90;44.20
19180;DHT22;9722;48.754;8.868;2023-09-19T10:26:18;28.90;44.80
19180;DHT22;9722;48.754;8.868;2023-09-19T10:29:39;28.80;44.90
19180;DHT22;9722;48.754;8.868;2023-09-19T10:33:03;28.60;45.90
19180;DHT22;9722;48.754;8.868;2023-09-19T10:36:25;28.80;45.90
19180;DHT22;9722;48.754;8.868;2023-09-19T10:39:47;30.10;45.00
19180;DHT22;9722;48.754;8.868;2023-09-19T10:43:13;31.50;41.90
19180;DHT22;9722;48.754;8.868;2023-09-19T10:46:37;32.50;39.70
19180;DHT22;9722;48.754;8.868;2023-09-19T10:49:58;32.90;39.20
19180;DHT22;9722;48.754;8.868;2023-09-19T10:53:20;33.60;38.40
19180;DHT22;9722;48.754;8.868;2023-09-19T10:56:51;34.20;36.20
19180;DHT22;9722;48.754;8.868;2023-09-19T11:00:12;34.30;36.60
19180;DHT22;9722;48.754;8.868;2023-09-19T11:03:42;34.60;34.80
19180;DHT22;9722;48.754;8.868;2023-09-19T11:07:11;34.60;34.80
19180;DHT22;9722;48.754;8.868;2023-09-19T11:10:48;34.40;36.20
19180;DHT22;9722;48.754;8.868;2023-09-19T11:17:46;34.00;35.70
19180;DHT22;9722;48.754;8.868;2023-09-19T11:25:40;32.70;36.90
19180;DHT22;9722;48.754;8.868;2023-09-19T11:29:26;33.00;36.80
19180;DHT22;9722;48.754;8.868;2023-09-19T11:36:43;33.70;35.20
19180;DHT22;9722;48.754;8.868;2023-09-19T11:40:06;33.60;35.60
19180;DHT22;9722;48.754;8.868;2023-09-19T11:43:30;34.20;35.50
19180;DHT22;9722;48.754;8.868;2023-09-19T11:46:55;34.70;34.50
19180;DHT22;9722;48.754;8.868;2023-09-19T11:50:20;35.30;34.50
19180;DHT22;9722;48.754;8.868;2023-09-19T11:53:41;36.20;33.00
19180;DHT22;9722;48.754;8.868;2023-09-19T11:57:03;36.60;32.00
19180;DHT22;9722;48.754;8.868;2023-09-19T12:00:24;35.50;31.70
19180;DHT22;9722;48.754;8.868;2023-09-19T12:03:54;34.40;33.80
19180;DHT22;9722;48.754;8.868;2023-09-19T12:07:17;34.50;34.30
19180;DHT22;9722;48.754;8.868;2023-09-19T12:10:47;35.20;33.80
19180;DHT22;9722;48.754;8.868;2023-09-19T12:14:08;35.40;32.70
19180;DHT22;9722;48.754;8.868;2023-09-19T12:17:36;35.40;32.90
19180;DHT22;9722;48.754;8.868;2023-09-19T12:20:57;34.70;33.40
19180;DHT22;9722;48.754;8.868;2023-09-19T12:24:27;33.80;34.40
19180;DHT22;9722;48.754;8.868;2023-09-19T12:27:50;34.00;34.30
19180;DHT22;9722;48.754;8.868;2023-09-19T12:31:13;33.70;33.90
19180;DHT22;9722;48.754;8.868;2023-09-19T12:34:33;32.50;35.60
19180;DHT22;9722;48.754;8.868;2023-09-19T12:38:03;31.60;36.50
19180;DHT22;9722;48.754;8.868;2023-09-19T12:41:23;31.10;37.80
19180;DHT22;9722;48.754;8.868;2023-09-19T12:44:47;32.00;37.30
19180;DHT22;9722;48.754;8.868;2023-09-19T12:48:18;33.00;35.70
19180;DHT22;9722;48.754;8.868;2023-09-19T12:51:42;33.30;34.50
19180;DHT22;9722;48.754;8.868;2023-09-19T12:55:04;33.20;34.90
19180;DHT22;9722;48.754;8.868;2023-09-19T12:58:26;33.40;35.00
19180;DHT22;9722;48.754;8.868;2023-09-19T13:02:03;33.70;35.20
19180;DHT22;9722;48.754;8.868;2023-09-19T13:09:08;35.80;33.20
19180;DHT22;9722;48.754;8.868;2023-09-19T13:12:36;35.80;33.40
19180;DHT22;9722;48.754;8.868;2023-09-19T13:16:02;36.40;32.90
19180;DHT22;9722;48.754;8.868;2023-09-19T13:23:00;36.80;31.40
19180;DHT22;9722;48.754;8.868;2023-09-19T13:26:26;36.80;32.30
19180;DHT22;9722;48.754;8.868;2023-09-19T13:29:48;37.10;32.20
19180;DHT22;9722;48.754;8.868;2023-09-19T13:33:10;37.60;32.00
19180;DHT22;9722;48.754;8.868;2023-09-19T13:36:30;37.80;31.50
19180;DHT22;9722;48.754;8.868;2023-09-19T13:39:52;37.70;31.90
19180;DHT22;9722;48.754;8.868;2023-09-19T13:43:12;37.70;31.60
19180;DHT22;9722;48.754;8.868;2023-09-19T13:46:33;37.00;31.20
19180;DHT22;9722;48.754;8.868;2023-09-19T13:49:55;36.60;32.20
19180;DHT22;9722;48.754;8.868;2023-09-19T13:53:16;36.40;32.10
19180;DHT22;9722;48.754;8.868;2023-09-19T13:56:37;35.80;31.80
19180;DHT22;9722;48.754;8.868;2023-09-19T13:59:57;34.90;32.50
19180;DHT22;9722;48.754;8.868;2023-09-19T14:03:18;33.90;33.50
19180;DHT22;9722;48.754;8.868;2023-09-19T14:06:42;32.80;35.00
19180;DHT22;9722;48.754;8.868;2023-09-19T14:10:03;32.20;35.80
19180;DHT22;9722;48.754;8.868;2023-09-19T14:13:24;31.60;36.60
19180;DHT22;9722;48.754;8.868;2023-09-19T14:16:49;30.80;37.20
19180;DHT22;9722;48.754;8.868;2023-09-19T14:20:10;30.00;37.90
19180;DHT22;9722;48.754;8.868;2023-09-19T14:23:38;29.10;38.70
19180;DHT22;9722;48.754;8.868;2023-09-19T14:26:58;28.50;39.70
19180;DHT22;9722;48.754;8.868;2023-09-19T14:30:19;28.30;40.50
19180;DHT22;9722;48.754;8.868;2023-09-19T14:33:41;28.30;40.40
19180;DHT22;9722;48.754;8.868;2023-09-19T14:37:01;28.70;40.00
19180;DHT22;9722;48.754;8.868;2023-09-19T14:40:22;28.80;39.50
19180;DHT22;9722;48.754;8.868;2023-09-19T14:43:43;28.10;39.70
19180;DHT22;9722;48.754;8.868;2023-09-19T14:47:03;27.10;40.90
19180;DHT22;9722;48.754;8.868;2023-09-19T14:50:27;26.20;42.20
19180;DHT22;9722;48.754;8.868;2023-09-19T14:53:50;25.50;43.80
19180;DHT22;9722;48.754;8.868;2023-09-19T14:57:12;25.00;44.70
19180;DHT22;9722;48.754;8.868;2023-09-19T15:00:34;24.50;45.50
19180;DHT22;9722;48.754;8.868;2023-09-19T15:03:55;24.20;46.30
19180;DHT22;9722;48.754;8.868;2023-09-19T15:07:16;23.90;47.10
19180;DHT22;9722;48.754;8.868;2023-09-19T15:10:38;23.60;47.80
19180;DHT22;9722;48.754;8.868;2023-09-19T15:13:58;23.40;48.30
19180;DHT22;9722;48.754;8.868;2023-09-19T15:17:19;23.40;48.90
19180;DHT22;9722;48.754;8.868;2023-09-19T15:20:44;23.30;49.10
19180;DHT22;9722;48.754;8.868;2023-09-19T15:24:05;23.20;49.30
19180;DHT22;9722;48.754;8.868;2023-09-19T15:27:25;23.10;49.40
19180;DHT22;9722;48.754;8.868;2023-09-19T15:30:46;23.00;49.70
19180;DHT22;9722;48.754;8.868;2023-09-19T15:34:07;22.90;49.80
19180;DHT22;9722;48.754;8.868;2023-09-19T15:37:28;22.80;50.10
19180;DHT22;9722;48.754;8.868;2023-09-19T15:40:48;22.80;50.40
19180;DHT22;9722;48.754;8.868;2023-09-19T15:44:17;22.70;50.70
19180;DHT22;9722;48.754;8.868;2023-09-19T15:47:37;22.60;51.00
19180;DHT22;9722;48.754;8.868;2023-09-19T15:51:03;22.60;51.40
19180;DHT22;9722;48.754;8.868;2023-09-19T15:54:25;22.40;51.40
19180;DHT22;9722;48.754;8.868;2023-09-19T15:57:46;22.40;51.60
19180;DHT22;9722;48.754;8.868;2023-09-19T16:01:08;22.30;51.80
19180;DHT22;9722;48.754;8.868;2023-09-19T16:04:31;22.20;52.10
19180;DHT22;9722;48.754;8.868;2023-09-19T16:07:52;22.10;52.20
19180;DHT22;9722;48.754;8.868;2023-09-19T16:11:13;22.00;52.60
19180;DHT22;9722;48.754;8.868;2023-09-19T16:14:33;22.00;52.80
19180;DHT22;9722;48.754;8.868;2023-09-19T16:17:54;21.90;53.20
19180;DHT22;9722;48.754;8.868;2023-09-19T16:21:16;21.80;53.50
19180;DHT22;9722;48.754;8.868;2023-09-19T16:24:37;21.70;53.80
19180;DHT22;9722;48.754;8.868;2023-09-19T16:27:57;21.60;54.20
19180;DHT22;9722;48.754;8.868;2023-09-19T16:31:18;21.50;54.40
19180;DHT22;9722;48.754;8.868;2023-09-19T16:34:39;21.40;54.70
19180;DHT22;9722;48.754;8.868;2023-09-19T16:37:59;21.30;55.00
19180;DHT22;9722;48.754;8.868;2023-09-19T16:41:20;21.30;55.40
19180;DHT22;9722;48.754;8.868;2023-09-19T16:44:40;21.20;55.80
19180;DHT22;9722;48.754;8.868;2023-09-19T16:48:01;21.10;55.90
19180;DHT22;9722;48.754;8.868;2023-09-19T16:51:21;21.00;56.20
19180;DHT22;9722;48.754;8.868;2023-09-19T16:54:42;20.90;57.10
19180;DHT22;9722;48.754;8.868;2023-09-19T16:58:03;20.80;56.70
19180;DHT22;9722;48.754;8.868;2023-09-19T17:01:25;20.70;57.10
19180;DHT22;9722;48.754;8.868;2023-09-19T17:04:47;20.70;57.30
19180;DHT22;9722;48.754;8.868;2023-09-19T17:08:07;20.60;57.80
19180;DHT22;9722;48.754;8.868;2023-09-19T17:11:28;20.50;58.10
19180;DHT22;9722;48.754;8.868;2023-09-19T17:14:49;20.30;58.30
19180;DHT22;9722;48.754;8.868;2023-09-19T17:18:10;20.20;58.70
19180;DHT22;9722;48.754;8.868;2023-09-19T17:21:30;20.10;59.10
19180;DHT22;9722;48.754;8.868;2023-09-19T17:24:51;20.00;59.90
19180;DHT22;9722;48.754;8.868;2023-09-19T17:28:12;19.90;60.90
19180;DHT22;9722;48.754;8.868;2023-09-19T17:31:32;19.80;62.10
19180;DHT22;9722;48.754;8.868;2023-09-19T17:34:53;19.60;62.90
19180;DHT22;9722;48.754;8.868;2023-09-19T17:38:13;19.50;63.40
19180;DHT22;9722;48.754;8.868;2023-09-19T17:41:34;19.30;63.70
19180;DHT22;9722;48.754;8.868;2023-09-19T17:44:54;19.20;64.00
19180;DHT22;9722;48.754;8.868;2023-09-19T17:48:15;19.10;64.00
19180;DHT22;9722;48.754;8.868;2023-09-19T17:51:35;19.00;64.30
19180;DHT22;9722;48.754;8.868;2023-09-19T17:54:56;18.90;64.90
19180;DHT22;9722;48.754;8.868;2023-09-19T17:58:18;18.80;65.70
19180;DHT22;9722;48.754;8.868;2023-09-19T18:01:39;18.60;66.30
19180;DHT22;9722;48.754;8.868;2023-09-19T18:05:00;18.60;66.70
19180;DHT22;9722;48.754;8.868;2023-09-19T18:08:20;18.50;66.90
19180;DHT22;9722;48.754;8.868;2023-09-19T18:11:41;18.40;67.90
19180;DHT22;9722;48.754;8.868;2023-09-19T18:15:02;18.30;68.50
19180;DHT22;9722;48.754;8.868;2023-09-19T18:18:25;18.10;69.10
19180;DHT22;9722;48.754;8.868;2023-09-19T18:21:45;18.00;69.60
19180;DHT22;9722;48.754;8.868;2023-09-19T18:25:06;18.00;70.10
19180;DHT22;9722;48.754;8.868;2023-09-19T18:28:27;17.90;71.60
19180;DHT22;9722;48.754;8.868;2023-09-19T18:31:48;17.70;71.60
19180;DHT22;9722;48.754;8.868;2023-09-19T18:35:08;17.60;72.40
19180;DHT22;9722;48.754;8.868;2023-09-19T18:38:29;17.50;72.90
19180;DHT22;9722;48.754;8.868;2023-09-19T18:41:50;17.30;73.70
19180;DHT22;9722;48.754;8.868;2023-09-19T18:45:10;17.20;74.40
19180;DHT22;9722;48.754;8.868;2023-09-19T18:48:31;17.10;75.10
19180;DHT22;9722;48.754;8.868;2023-09-19T18:51:52;17.00;76.80
19180;DHT22;9722;48.754;8.868;2023-09-19T18:55:13;16.90;76.70
19180;DHT22;9722;48.754;8.868;2023-09-19T18:58:35;16.80;77.40
19180;DHT22;9722;48.754;8.868;2023-09-19T19:01:55;16.80;78.00
19180;DHT22;9722;48.754;8.868;2023-09-19T19:05:18;16.70;78.60
19180;DHT22;9722;48.754;8.868;2023-09-19T19:08:39;16.60;79.40
19180;DHT22;9722;48.754;8.868;2023-09-19T19:12:00;16.50;80.20
19180;DHT22;9722;48.754;8.868;2023-09-19T19:15:20;16.40;81.50
19180;DHT22;9722;48.754;8.868;2023-09-19T19:18:41;16.20;83.00
19180;DHT22;9722;48.754;8.868;2023-09-19T19:22:02;16.00;84.50
19180;DHT22;9722;48.754;8.868;2023-09-19T19:25:23;15.70;86.30
19180;DHT22;9722;48.754;8.868;2023-09-19T19:28:46;15.50;87.40
19180;DHT22;9722;48.754;8.868;2023-09-19T19:32:08;15.30;88.80
19180;DHT22;9722;48.754;8.868;2023-09-19T19:35:31;15.20;89.90
19180;DHT22;9722;48.754;8.868;2023-09-19T19:38:53;15.00;90.40
19180;DHT22;9722;48.754;8.868;2023-09-19T19:42:15;15.00;90.90
19180;DHT22;9722;48.754;8.868;2023-09-19T19:45:36;14.90;91.30
19180;DHT22;9722;48.754;8.868;2023-09-19T19:48:56;14.80;91.70
19180;DHT22;9722;48.754;8.868;2023-09-19T19:52:18;14.70;91.90
19180;DHT22;9722;48.754;8.868;2023-09-19T19:55:39;14.60;92.30
19180;DHT22;9722;48.754;8.868;2023-09-19T19:59:00;14.50;92.70
19180;DHT22;9722;48.754;8.868;2023-09-19T20:02:21;14.50;93.20
19180;DHT22;9722;48.754;8.868;2023-09-19T20:05:42;14.40;93.50
19180;DHT22;9722;48.754;8.868;2023-09-19T20:09:03;14.40;93.90
19180;DHT22;9722;48.754;8.868;2023-09-19T20:12:25;14.30;94.10
19180;DHT22;9722;48.754;8.868;2023-09-19T20:15:56;14.20;94.50
19180;DHT22;9722;48.754;8.868;2023-09-19T20:19:16;14.10;94.90
19180;DHT22;9722;48.754;8.868;2023-09-19T20:22:37;14.10;95.30
19180;DHT22;9722;48.754;8.868;2023-09-19T20:26:01;14.00;95.60
19180;DHT22;9722;48.754;8.868;2023-09-19T20:29:21;14.00;95.80
19180;DHT22;9722;48.754;8.868;2023-09-19T20:32:42;13.90;96.00
19180;DHT22;9722;48.754;8.868;2023-09-19T20:36:05;13.90;96.30
19180;DHT22;9722;48.754;8.868;2023-09-19T20:39:28;13.80;96.60
19180;DHT22;9722;48.754;8.868;2023-09-19T20:42:49;13.80;96.90
19180;DHT22;9722;48.754;8.868;2023-09-19T20:46:10;13.70;97.20
19180;DHT22;9722;48.754;8.868;2023-09-19T20:49:34;13.70;97.50
19180;DHT22;9722;48.754;8.868;2023-09-19T20:52:56;13.70;97.60
19180;DHT22;9722;48.754;8.868;2023-09-19T20:56:16;13.70;97.60
19180;DHT22;9722;48.754;8.868;2023-09-19T20:59:39;13.90;97.70
19180;DHT22;9722;48.754;8.868;2023-09-19T21:02:59;14.00;97.60
19180;DHT22;9722;48.754;8.868;2023-09-19T21:06:21;13.90;97.60
19180;DHT22;9722;48.754;8.868;2023-09-19T21:09:41;13.80;97.60
19180;DHT22;9722;48.754;8.868;2023-09-19T21:13:03;13.80;97.90
19180;DHT22;9722;48.754;8.868;2023-09-19T21:16:25;13.80;98.00
19180;DHT22;9722;48.754;8.868;2023-09-19T21:19:46;13.70;98.10
19180;DHT22;9722;48.754;8.868;2023-09-19T21:23:06;13.70;98.30
19180;DHT22;9722;48.754;8.868;2023-09-19T21:26:33;13.60;98.40
19180;DHT22;9722;48.754;8.868;2023-09-19T21:29:54;13.60;98.60
19180;DHT22;9722;48.754;8.868;2023-09-19T21:33:15;13.50;98.90
19180;DHT22;9722;48.754;8.868;2023-09-19T21:36:36;13.40;99.30
19180;DHT22;9722;48.754;8.868;2023-09-19T21:39:56;13.30;99.80
19180;DHT22;9722;48.754;8.868;2023-09-19T21:43:17;13.30;99.90
19180;DHT22;9722;48.754;8.868;2023-09-19T21:46:38;13.20;99.90
19180;DHT22;9722;48.754;8.868;2023-09-19T21:49:59;13.20;99.90
19180;DHT22;9722;48.754;8.868;2023-09-19T21:53:20;13.20;99.90
19180;DHT22;9722;48.754;8.868;2023-09-19T21:56:40;13.10;99.90
19180;DHT22;9722;48.754;8.868;2023-09-19T22:00:01;13.10;99.90
19180;DHT22;9722;48.754;8.868;2023-09-19T22:03:21;13.10;99.90
19180;DHT22;9722;48.754;8.868;2023-09-19T22:06:42;13.10;99.90